sensor_id;sensor_type;location;lat;lon;timestamp;pressure;altitude;pressure_sealevel;temperature;humidity
75497;BME280;64074;47.540;19.072;2023-05-10T00:01:17;100793.63;;;14.28;55.98
75497;BME280;64074;47.540;19.072;2023-05-10T00:04:36;100795.06;;;14.25;55.72
75497;BME280;64074;47.540;19.072;2023-05-10T00:07:58;100791.91;;;14.32;55.93
75497;BME280;64074;47.540;19.072;2023-05-10T00:11:24;100784.34;;;14.29;55.94
75497;BME280;64074;47.540;19.072;2023-05-10T00:14:46;100780.34;;;14.12;56.75
75497;BME280;64074;47.540;19.072;2023-05-10T00:18:10;100793.41;;;14.02;57.28
75497;BME280;64074;47.540;19.072;2023-05-10T00:21:49;100794.28;;;13.89;57.86
75497;BME280;64074;47.540;19.072;2023-05-10T00:25:26;100790.13;;;13.77;58.11
75497;BME280;64074;47.540;19.072;2023-05-10T00:28:59;100784.00;;;13.72;58.60
75497;BME280;64074;47.540;19.072;2023-05-10T00:32:25;100784.09;;;13.67;58.48
75497;BME280;64074;47.540;19.072;2023-05-10T00:35:59;100781.69;;;13.65;58.87
75497;BME280;64074;47.540;19.072;2023-05-10T00:39:23;100780.34;;;13.63;59.51
75497;BME280;64074;47.540;19.072;2023-05-10T00:42:53;100782.78;;;13.37;59.98
75497;BME280;64074;47.540;19.072;2023-05-10T00:46:23;100774.03;;;13.40;60.02
75497;BME280;64074;47.540;19.072;2023-05-10T00:50:02;100780.78;;;13.29;60.09
75497;BME280;64074;47.540;19.072;2023-05-10T00:53:31;100787.84;;;13.30;60.69
75497;BME280;64074;47.540;19.072;2023-05-10T00:56:53;100776.06;;;13.20;61.12
75497;BME280;64074;47.540;19.072;2023-05-10T01:00:24;100778.78;;;13.20;61.01
75497;BME280;64074;47.540;19.072;2023-05-10T01:03:55;100775.91;;;13.12;61.65
75497;BME280;64074;47.540;19.072;2023-05-10T01:07:35;100774.78;;;12.99;62.26
75497;BME280;64074;47.540;19.072;2023-05-10T01:11:02;100771.34;;;13.07;61.65
75497;BME280;64074;47.540;19.072;2023-05-10T01:14:36;100777.91;;;13.06;61.98
75497;BME280;64074;47.540;19.072;2023-05-10T01:18:00;100773.69;;;13.00;61.79
75497;BME280;64074;47.540;19.072;2023-05-10T01:21:38;100771.56;;;12.97;62.44
75497;BME280;64074;47.540;19.072;2023-05-10T01:36:05;100768.53;;;13.12;62.13
75497;BME280;64074;47.540;19.072;2023-05-10T01:39:29;100772.88;;;13.13;62.04
75497;BME280;64074;47.540;19.072;2023-05-10T01:43:10;100773.41;;;13.15;61.96
75497;BME280;64074;47.540;19.072;2023-05-10T01:46:41;100764.50;;;13.10;62.62
75497;BME280;64074;47.540;19.072;2023-05-10T01:50:10;100768.75;;;13.16;61.93
75497;BME280;64074;47.540;19.072;2023-05-10T01:53:33;100766.66;;;13.27;62.21
75497;BME280;64074;47.540;19.072;2023-05-10T01:57:03;100767.88;;;13.20;61.99
75497;BME280;64074;47.540;19.072;2023-05-10T02:00:22;100764.06;;;13.21;62.18
75497;BME280;64074;47.540;19.072;2023-05-10T02:03:35;100760.91;;;13.28;61.83
75497;BME280;64074;47.540;19.072;2023-05-10T02:06:58;100747.50;;;13.32;61.33
75497;BME280;64074;47.540;19.072;2023-05-10T02:10:19;100756.09;;;13.39;61.46
75497;BME280;64074;47.540;19.072;2023-05-10T02:13:42;100752.34;;;13.35;61.28
75497;BME280;64074;47.540;19.072;2023-05-10T02:17:09;100743.78;;;13.28;61.30
75497;BME280;64074;47.540;19.072;2023-05-10T02:20:35;100738.31;;;13.28;60.35
75497;BME280;64074;47.540;19.072;2023-05-10T02:24:03;100745.06;;;13.30;60.50
75497;BME280;64074;47.540;19.072;2023-05-10T02:27:42;100738.72;;;13.35;60.07
75497;BME280;64074;47.540;19.072;2023-05-10T02:31:21;100748.41;;;13.41;59.52
75497;BME280;64074;47.540;19.072;2023-05-10T02:34:35;100739.41;;;13.68;58.92
75497;BME280;64074;47.540;19.072;2023-05-10T02:38:09;100743.19;;;13.80;58.38
75497;BME280;64074;47.540;19.072;2023-05-10T02:41:33;100746.66;;;13.72;58.49
75497;BME280;64074;47.540;19.072;2023-05-10T02:44:54;100749.88;;;13.74;58.91
75497;BME280;64074;47.540;19.072;2023-05-10T02:48:25;100744.63;;;13.78;58.42
75497;BME280;64074;47.540;19.072;2023-05-10T02:51:56;100745.09;;;13.94;58.23
75497;BME280;64074;47.540;19.072;2023-05-10T02:55:38;100745.22;;;13.75;58.56
75497;BME280;64074;47.540;19.072;2023-05-10T02:59:07;100756.75;;;13.72;58.85
75497;BME280;64074;47.540;19.072;2023-05-10T03:02:28;100753.53;;;13.56;58.46
75497;BME280;64074;47.540;19.072;2023-05-10T03:05:58;100750.63;;;13.52;58.76
75497;BME280;64074;47.540;19.072;2023-05-10T03:09:21;100743.94;;;13.59;57.55
75497;BME280;64074;47.540;19.072;2023-05-10T03:13:07;100752.94;;;13.45;58.22
75497;BME280;64074;47.540;19.072;2023-05-10T03:16:48;100746.69;;;13.31;57.40
75497;BME280;64074;47.540;19.072;2023-05-10T03:20:26;100743.16;;;13.44;57.28
75497;BME280;64074;47.540;19.072;2023-05-10T03:24:13;100747.81;;;13.30;57.27
75497;BME280;64074;47.540;19.072;2023-05-10T03:27:49;100748.41;;;13.41;57.73
75497;BME280;64074;47.540;19.072;2023-05-10T03:31:10;100754.06;;;13.31;57.27
75497;BME280;64074;47.540;19.072;2023-05-10T03:34:30;100748.00;;;13.34;57.53
75497;BME280;64074;47.540;19.072;2023-05-10T03:37:48;100743.97;;;13.31;57.91
75497;BME280;64074;47.540;19.072;2023-05-10T03:40:59;100752.44;;;13.30;58.06
75497;BME280;64074;47.540;19.072;2023-05-10T03:44:27;100745.44;;;13.10;57.77
75497;BME280;64074;47.540;19.072;2023-05-10T03:48:07;100746.47;;;13.14;57.40
75497;BME280;64074;47.540;19.072;2023-05-10T03:51:29;100746.91;;;13.21;57.69
75497;BME280;64074;47.540;19.072;2023-05-10T03:54:48;100751.34;;;13.31;56.85
75497;BME280;64074;47.540;19.072;2023-05-10T03:58:11;100749.09;;;13.33;57.17
75497;BME280;64074;47.540;19.072;2023-05-10T04:01:34;100747.38;;;13.37;57.43
75497;BME280;64074;47.540;19.072;2023-05-10T04:05:07;100739.63;;;13.30;56.73
75497;BME280;64074;47.540;19.072;2023-05-10T04:08:28;100742.75;;;13.37;57.23
75497;BME280;64074;47.540;19.072;2023-05-10T04:11:51;100747.47;;;13.59;56.54
75497;BME280;64074;47.540;19.072;2023-05-10T04:15:14;100748.69;;;13.53;56.80
75497;BME280;64074;47.540;19.072;2023-05-10T04:18:54;100738.91;;;13.52;57.20
75497;BME280;64074;47.540;19.072;2023-05-10T04:22:32;100740.44;;;13.44;57.73
75497;BME280;64074;47.540;19.072;2023-05-10T04:26:05;100746.19;;;13.43;57.63
75497;BME280;64074;47.540;19.072;2023-05-10T04:29:37;100747.97;;;13.61;57.42
75497;BME280;64074;47.540;19.072;2023-05-10T04:33:02;100753.09;;;13.76;57.32
75497;BME280;64074;47.540;19.072;2023-05-10T04:36:40;100753.03;;;13.68;57.35
75497;BME280;64074;47.540;19.072;2023-05-10T04:40:17;100749.91;;;13.33;57.58
75497;BME280;64074;47.540;19.072;2023-05-10T04:43:46;100753.44;;;13.47;57.35
75497;BME280;64074;47.540;19.072;2023-05-10T04:47:06;100754.44;;;13.51;57.41
75497;BME280;64074;47.540;19.072;2023-05-10T04:50:32;100751.22;;;13.49;57.22
75497;BME280;64074;47.540;19.072;2023-05-10T04:53:40;100752.22;;;13.53;57.04
75497;BME280;64074;47.540;19.072;2023-05-10T04:56:57;100749.03;;;13.24;58.30
75497;BME280;64074;47.540;19.072;2023-05-10T05:00:33;100752.72;;;13.69;56.80
75497;BME280;64074;47.540;19.072;2023-05-10T05:03:51;100754.34;;;13.57;57.08
75497;BME280;64074;47.540;19.072;2023-05-10T05:07:18;100751.03;;;13.46;58.01
75497;BME280;64074;47.540;19.072;2023-05-10T05:10:50;100759.69;;;13.48;57.27
75497;BME280;64074;47.540;19.072;2023-05-10T05:14:15;100754.53;;;13.60;57.51
75497;BME280;64074;47.540;19.072;2023-05-10T05:17:45;100753.06;;;13.90;56.69
75497;BME280;64074;47.540;19.072;2023-05-10T05:21:22;100764.72;;;13.68;57.16
75497;BME280;64074;47.540;19.072;2023-05-10T05:24:51;100763.50;;;13.61;57.18
75497;BME280;64074;47.540;19.072;2023-05-10T05:28:18;100764.63;;;13.32;57.84
75497;BME280;64074;47.540;19.072;2023-05-10T05:31:31;100770.22;;;13.41;57.63
75497;BME280;64074;47.540;19.072;2023-05-10T05:34:41;100763.31;;;13.57;57.61
75497;BME280;64074;47.540;19.072;2023-05-10T05:38:07;100771.72;;;13.97;56.55
75497;BME280;64074;47.540;19.072;2023-05-10T05:41:15;100766.97;;;14.02;56.37
75497;BME280;64074;47.540;19.072;2023-05-10T05:44:23;100777.34;;;14.14;56.00
75497;BME280;64074;47.540;19.072;2023-05-10T05:47:33;100780.34;;;14.12;56.14
75497;BME280;64074;47.540;19.072;2023-05-10T05:50:43;100772.25;;;14.21;56.02
75497;BME280;64074;47.540;19.072;2023-05-10T05:53:59;100782.16;;;13.81;56.82
75497;BME280;64074;47.540;19.072;2023-05-10T05:57:29;100782.97;;;13.81;56.60
75497;BME280;64074;47.540;19.072;2023-05-10T06:00:51;100781.09;;;14.04;56.43
75497;BME280;64074;47.540;19.072;2023-05-10T06:04:03;100788.00;;;14.24;55.93
75497;BME280;64074;47.540;19.072;2023-05-10T06:07:33;100785.94;;;14.07;55.96
75497;BME280;64074;47.540;19.072;2023-05-10T06:10:39;100788.84;;;14.11;55.94
75497;BME280;64074;47.540;19.072;2023-05-10T06:13:56;100788.81;;;14.25;55.67
75497;BME280;64074;47.540;19.072;2023-05-10T06:17:43;100787.38;;;14.27;55.63
75497;BME280;64074;47.540;19.072;2023-05-10T06:21:24;100784.03;;;14.30;55.34
75497;BME280;64074;47.540;19.072;2023-05-10T06:24:42;100788.09;;;14.55;54.95
75497;BME280;64074;47.540;19.072;2023-05-10T06:27:57;100787.09;;;14.51;55.28
75497;BME280;64074;47.540;19.072;2023-05-10T06:31:14;100799.28;;;14.67;54.79
75497;BME280;64074;47.540;19.072;2023-05-10T06:34:40;100796.66;;;15.16;53.45
75497;BME280;64074;47.540;19.072;2023-05-10T06:38:00;100802.19;;;15.02;53.57
75497;BME280;64074;47.540;19.072;2023-05-10T06:41:21;100798.81;;;14.74;54.85
75497;BME280;64074;47.540;19.072;2023-05-10T06:44:42;100791.13;;;14.76;55.20
75497;BME280;64074;47.540;19.072;2023-05-10T06:47:54;100786.84;;;15.15;54.17
75497;BME280;64074;47.540;19.072;2023-05-10T06:51:20;100803.44;;;14.65;55.69
75497;BME280;64074;47.540;19.072;2023-05-10T06:54:57;100789.38;;;14.80;55.36
75497;BME280;64074;47.540;19.072;2023-05-10T06:58:12;100793.28;;;15.19;54.46
75497;BME280;64074;47.540;19.072;2023-05-10T07:01:38;100792.69;;;15.30;54.52
75497;BME280;64074;47.540;19.072;2023-05-10T07:04:58;100802.97;;;14.71;55.01
75497;BME280;64074;47.540;19.072;2023-05-10T07:08:21;100795.28;;;15.04;54.68
75497;BME280;64074;47.540;19.072;2023-05-10T07:11:28;100799.09;;;15.26;54.48
75497;BME280;64074;47.540;19.072;2023-05-10T07:14:44;100784.84;;;15.06;55.08
75497;BME280;64074;47.540;19.072;2023-05-10T07:18:13;100796.94;;;15.54;53.80
75497;BME280;64074;47.540;19.072;2023-05-10T07:21:47;100786.78;;;15.37;54.60
75497;BME280;64074;47.540;19.072;2023-05-10T07:24:58;100787.56;;;15.94;52.92
75497;BME280;64074;47.540;19.072;2023-05-10T07:28:15;100788.56;;;15.50;53.58
75497;BME280;64074;47.540;19.072;2023-05-10T07:31:30;100784.03;;;15.94;52.38
75497;BME280;64074;47.540;19.072;2023-05-10T07:35:00;100770.84;;;16.30;50.91
75497;BME280;64074;47.540;19.072;2023-05-10T07:38:25;100779.03;;;16.05;50.89
75497;BME280;64074;47.540;19.072;2023-05-10T07:41:43;100781.00;;;16.13;51.20
75497;BME280;64074;47.540;19.072;2023-05-10T07:44:57;100775.00;;;16.63;50.68
75497;BME280;64074;47.540;19.072;2023-05-10T07:48:16;100771.47;;;16.53;50.69
75497;BME280;64074;47.540;19.072;2023-05-10T07:51:37;100772.75;;;16.65;50.59
75497;BME280;64074;47.540;19.072;2023-05-10T07:54:53;100773.19;;;16.92;50.29
75497;BME280;64074;47.540;19.072;2023-05-10T07:58:07;100780.66;;;16.49;50.96
75497;BME280;64074;47.540;19.072;2023-05-10T08:01:32;100768.41;;;16.72;50.32
75497;BME280;64074;47.540;19.072;2023-05-10T08:04:44;100768.03;;;16.91;49.61
75497;BME280;64074;47.540;19.072;2023-05-10T08:07:59;100779.97;;;16.86;49.85
75497;BME280;64074;47.540;19.072;2023-05-10T08:11:09;100772.19;;;16.97;49.98
75497;BME280;64074;47.540;19.072;2023-05-10T08:14:20;100773.91;;;17.48;48.99
75497;BME280;64074;47.540;19.072;2023-05-10T08:17:54;100780.00;;;16.69;49.86
75497;BME280;64074;47.540;19.072;2023-05-10T08:21:05;100776.97;;;16.36;51.07
75497;BME280;64074;47.540;19.072;2023-05-10T08:24:16;100769.13;;;16.99;48.95
75497;BME280;64074;47.540;19.072;2023-05-10T08:27:25;100781.97;;;17.07;48.42
75497;BME280;64074;47.540;19.072;2023-05-10T08:30:35;100774.97;;;16.88;48.99
75497;BME280;64074;47.540;19.072;2023-05-10T08:34:30;100772.94;;;16.68;48.39
75497;BME280;64074;47.540;19.072;2023-05-10T08:37:42;100772.81;;;17.03;48.06
75497;BME280;64074;47.540;19.072;2023-05-10T08:40:54;100773.28;;;17.05;48.43
75497;BME280;64074;47.540;19.072;2023-05-10T08:44:28;100776.59;;;16.81;49.31
75497;BME280;64074;47.540;19.072;2023-05-10T08:47:42;100764.59;;;17.11;48.58
75497;BME280;64074;47.540;19.072;2023-05-10T08:51:26;100762.19;;;17.39;47.60
75497;BME280;64074;47.540;19.072;2023-05-10T08:54:38;100776.16;;;17.17;48.05
75497;BME280;64074;47.540;19.072;2023-05-10T08:58:02;100767.09;;;17.25;46.61
75497;BME280;64074;47.540;19.072;2023-05-10T09:01:09;100769.34;;;17.23;47.70
75497;BME280;64074;47.540;19.072;2023-05-10T09:04:21;100768.66;;;16.97;48.24
75497;BME280;64074;47.540;19.072;2023-05-10T09:08:02;100762.88;;;16.89;48.06
75497;BME280;64074;47.540;19.072;2023-05-10T09:11:27;100768.56;;;17.22;46.63
75497;BME280;64074;47.540;19.072;2023-05-10T09:14:50;100761.94;;;17.53;46.87
75497;BME280;64074;47.540;19.072;2023-05-10T09:18:13;100770.41;;;18.19;45.03
75497;BME280;64074;47.540;19.072;2023-05-10T09:21:25;100764.44;;;18.50;44.18
75497;BME280;64074;47.540;19.072;2023-05-10T09:25:13;100770.78;;;18.09;43.92
75497;BME280;64074;47.540;19.072;2023-05-10T09:28:57;100769.47;;;18.15;43.60
75497;BME280;64074;47.540;19.072;2023-05-10T09:32:02;100767.06;;;18.47;42.64
75497;BME280;64074;47.540;19.072;2023-05-10T09:35:14;100759.31;;;17.65;44.87
75497;BME280;64074;47.540;19.072;2023-05-10T09:38:26;100753.72;;;17.82;44.79
75497;BME280;64074;47.540;19.072;2023-05-10T09:41:42;100753.38;;;17.54;44.56
75497;BME280;64074;47.540;19.072;2023-05-10T09:45:11;100752.25;;;18.06;43.98
75497;BME280;64074;47.540;19.072;2023-05-10T09:48:24;100751.28;;;18.43;43.01
75497;BME280;64074;47.540;19.072;2023-05-10T09:51:35;100744.25;;;18.34;43.22
75497;BME280;64074;47.540;19.072;2023-05-10T09:54:52;100741.81;;;18.98;41.67
75497;BME280;64074;47.540;19.072;2023-05-10T09:58:03;100737.50;;;19.98;40.92
75497;BME280;64074;47.540;19.072;2023-05-10T10:01:25;100738.06;;;20.32;39.96
75497;BME280;64074;47.540;19.072;2023-05-10T10:04:43;100732.09;;;18.89;41.35
75497;BME280;64074;47.540;19.072;2023-05-10T10:07:59;100732.34;;;19.20;41.98
75497;BME280;64074;47.540;19.072;2023-05-10T10:11:06;100726.63;;;19.13;41.68
75497;BME280;64074;47.540;19.072;2023-05-10T10:14:24;100719.97;;;19.39;39.94
75497;BME280;64074;47.540;19.072;2023-05-10T10:17:58;100720.88;;;19.18;40.32
75497;BME280;64074;47.540;19.072;2023-05-10T10:21:24;100723.41;;;19.35;40.42
75497;BME280;64074;47.540;19.072;2023-05-10T10:25:21;100719.00;;;19.83;39.44
75497;BME280;64074;47.540;19.072;2023-05-10T10:36:06;100708.59;;;18.79;40.64
75497;BME280;64074;47.540;19.072;2023-05-10T10:39:20;100706.91;;;19.35;39.91
75497;BME280;64074;47.540;19.072;2023-05-10T10:42:45;100700.53;;;20.40;38.64
75497;BME280;64074;47.540;19.072;2023-05-10T10:52:53;100685.84;;;19.80;37.78
75497;BME280;64074;47.540;19.072;2023-05-10T10:56:08;100685.66;;;20.01;37.35
75497;BME280;64074;47.540;19.072;2023-05-10T10:59:29;100682.56;;;19.50;37.90
75497;BME280;64074;47.540;19.072;2023-05-10T11:03:33;100683.25;;;19.71;37.81
75497;BME280;64074;47.540;19.072;2023-05-10T11:08:41;100671.69;;;20.49;36.34
75497;BME280;64074;47.540;19.072;2023-05-10T11:11:59;100666.16;;;21.28;34.87
75497;BME280;64074;47.540;19.072;2023-05-10T11:15:09;100659.78;;;20.77;35.89
75497;BME280;64074;47.540;19.072;2023-05-10T11:18:28;100662.81;;;19.84;36.78
75497;BME280;64074;47.540;19.072;2023-05-10T11:25:11;100660.34;;;19.95;36.98
75497;BME280;64074;47.540;19.072;2023-05-10T11:28:20;100651.50;;;21.08;35.39
75497;BME280;64074;47.540;19.072;2023-05-10T11:31:35;100654.25;;;21.24;35.07
75497;BME280;64074;47.540;19.072;2023-05-10T11:34:47;100648.88;;;21.66;33.84
75497;BME280;64074;47.540;19.072;2023-05-10T11:37:52;100649.56;;;20.77;35.00
75497;BME280;64074;47.540;19.072;2023-05-10T11:41:09;100638.19;;;20.63;34.02
75497;BME280;64074;47.540;19.072;2023-05-10T11:44:36;100632.06;;;21.20;33.95
75497;BME280;64074;47.540;19.072;2023-05-10T11:47:48;100637.75;;;20.77;35.21
75497;BME280;64074;47.540;19.072;2023-05-10T11:51:01;100636.28;;;21.14;34.56
75497;BME280;64074;47.540;19.072;2023-05-10T11:54:27;100632.25;;;20.61;35.07
75497;BME280;64074;47.540;19.072;2023-05-10T11:57:46;100643.53;;;20.28;35.73
75497;BME280;64074;47.540;19.072;2023-05-10T12:01:00;100647.25;;;20.79;35.46
75497;BME280;64074;47.540;19.072;2023-05-10T12:04:23;100644.13;;;20.06;35.97
75497;BME280;64074;47.540;19.072;2023-05-10T12:07:34;100652.91;;;19.55;37.44
75497;BME280;64074;47.540;19.072;2023-05-10T12:11:08;100649.28;;;19.79;37.18
75497;BME280;64074;47.540;19.072;2023-05-10T12:14:27;100643.56;;;19.84;36.24
75497;BME280;64074;47.540;19.072;2023-05-10T12:17:51;100640.44;;;20.57;34.74
75497;BME280;64074;47.540;19.072;2023-05-10T12:21:03;100638.09;;;20.44;35.54
75497;BME280;64074;47.540;19.072;2023-05-10T12:24:36;100630.72;;;20.79;34.77
75497;BME280;64074;47.540;19.072;2023-05-10T12:27:54;100631.78;;;20.00;35.67
75497;BME280;64074;47.540;19.072;2023-05-10T12:31:06;100629.00;;;20.00;35.03
75497;BME280;64074;47.540;19.072;2023-05-10T12:34:23;100631.50;;;20.33;35.22
75497;BME280;64074;47.540;19.072;2023-05-10T12:37:33;100625.66;;;20.50;35.21
75497;BME280;64074;47.540;19.072;2023-05-10T12:40:47;100630.28;;;21.28;34.64
75497;BME280;64074;47.540;19.072;2023-05-10T12:43:57;100623.59;;;21.64;33.51
75497;BME280;64074;47.540;19.072;2023-05-10T12:47:08;100623.72;;;21.71;33.61
75497;BME280;64074;47.540;19.072;2023-05-10T12:50:23;100611.47;;;21.14;33.81
75497;BME280;64074;47.540;19.072;2023-05-10T12:53:28;100605.22;;;20.67;35.10
75497;BME280;64074;47.540;19.072;2023-05-10T12:56:37;100608.53;;;20.28;35.51
75497;BME280;64074;47.540;19.072;2023-05-10T12:59:50;100607.09;;;20.47;35.13
75497;BME280;64074;47.540;19.072;2023-05-10T13:03:26;100598.19;;;20.85;34.73
75497;BME280;64074;47.540;19.072;2023-05-10T13:06:40;100595.53;;;20.41;35.67
75497;BME280;64074;47.540;19.072;2023-05-10T13:10:08;100599.78;;;20.86;35.27
75497;BME280;64074;47.540;19.072;2023-05-10T13:13:29;100591.41;;;21.53;34.05
75497;BME280;64074;47.540;19.072;2023-05-10T13:16:55;100586.97;;;21.29;33.86
75497;BME280;64074;47.540;19.072;2023-05-10T13:23:22;100589.41;;;20.48;34.14
75497;BME280;64074;47.540;19.072;2023-05-10T13:26:33;100582.25;;;20.78;33.30
75497;BME280;64074;47.540;19.072;2023-05-10T13:29:47;100563.13;;;23.83;29.62
75497;BME280;64074;47.540;19.072;2023-05-10T13:33:11;100556.16;;;24.40;27.61
75497;BME280;64074;47.540;19.072;2023-05-10T13:36:43;100557.34;;;22.52;31.17
75497;BME280;64074;47.540;19.072;2023-05-10T13:39:53;100562.16;;;21.67;32.63
75497;BME280;64074;47.540;19.072;2023-05-10T13:43:16;100562.56;;;22.08;32.04
75497;BME280;64074;47.540;19.072;2023-05-10T13:46:32;100554.03;;;21.97;32.09
75497;BME280;64074;47.540;19.072;2023-05-10T13:49:56;100549.66;;;21.00;33.64
75497;BME280;64074;47.540;19.072;2023-05-10T13:53:17;100554.22;;;22.80;30.46
75497;BME280;64074;47.540;19.072;2023-05-10T13:56:33;100546.84;;;21.50;31.54
75497;BME280;64074;47.540;19.072;2023-05-10T13:59:58;100546.94;;;21.35;32.07
75497;BME280;64074;47.540;19.072;2023-05-10T14:03:16;100543.56;;;21.26;32.33
75497;BME280;64074;47.540;19.072;2023-05-10T14:11:30;100537.47;;;23.22;28.81
75497;BME280;64074;47.540;19.072;2023-05-10T14:15:14;100522.75;;;23.48;28.73
75497;BME280;64074;47.540;19.072;2023-05-10T14:18:38;100515.88;;;25.26;26.53
75497;BME280;64074;47.540;19.072;2023-05-10T14:21:52;100513.91;;;25.23;25.28
75497;BME280;64074;47.540;19.072;2023-05-10T14:25:17;100513.06;;;25.05;25.67
75497;BME280;64074;47.540;19.072;2023-05-10T14:28:34;100511.66;;;25.57;25.14
75497;BME280;64074;47.540;19.072;2023-05-10T14:32:03;100522.84;;;25.93;24.10
75497;BME280;64074;47.540;19.072;2023-05-10T14:35:18;100515.56;;;25.49;24.01
75497;BME280;64074;47.540;19.072;2023-05-10T14:38:30;100513.75;;;26.14;23.08
75497;BME280;64074;47.540;19.072;2023-05-10T14:42:08;100505.16;;;23.63;25.87
75497;BME280;64074;47.540;19.072;2023-05-10T14:45:21;100508.16;;;23.85;27.00
75497;BME280;64074;47.540;19.072;2023-05-10T14:48:51;100514.50;;;23.18;29.44
75497;BME280;64074;47.540;19.072;2023-05-10T14:52:23;100509.94;;;23.67;28.58
75497;BME280;64074;47.540;19.072;2023-05-10T14:56:45;100505.88;;;21.95;31.34
75497;BME280;64074;47.540;19.072;2023-05-10T15:00:13;100511.03;;;21.54;31.64
75497;BME280;64074;47.540;19.072;2023-05-10T15:03:26;100512.13;;;20.76;32.92
75497;BME280;64074;47.540;19.072;2023-05-10T15:06:36;100520.38;;;20.41;33.12
75497;BME280;64074;47.540;19.072;2023-05-10T15:14:03;100522.63;;;19.76;33.40
75497;BME280;64074;47.540;19.072;2023-05-10T15:17:31;100512.34;;;20.04;33.07
75497;BME280;64074;47.540;19.072;2023-05-10T15:20:56;100521.19;;;20.41;32.53
75497;BME280;64074;47.540;19.072;2023-05-10T15:24:12;100527.56;;;20.61;31.66
75497;BME280;64074;47.540;19.072;2023-05-10T15:27:29;100513.59;;;20.38;32.02
75497;BME280;64074;47.540;19.072;2023-05-10T15:30:35;100514.88;;;20.41;31.70
75497;BME280;64074;47.540;19.072;2023-05-10T15:33:45;100513.34;;;20.59;31.85
75497;BME280;64074;47.540;19.072;2023-05-10T15:36:56;100519.41;;;20.84;31.28
75497;BME280;64074;47.540;19.072;2023-05-10T15:40:12;100512.38;;;20.36;32.45
75497;BME280;64074;47.540;19.072;2023-05-10T15:43:35;100510.75;;;20.03;33.59
75497;BME280;64074;47.540;19.072;2023-05-10T15:46:50;100509.44;;;19.97;33.60
75497;BME280;64074;47.540;19.072;2023-05-10T15:50:17;100501.91;;;20.10;33.51
75497;BME280;64074;47.540;19.072;2023-05-10T15:53:24;100509.00;;;20.42;33.18
75497;BME280;64074;47.540;19.072;2023-05-10T15:56:29;100502.06;;;20.33;33.61
75497;BME280;64074;47.540;19.072;2023-05-10T15:59:33;100508.81;;;20.35;33.47
75497;BME280;64074;47.540;19.072;2023-05-10T16:02:44;100505.81;;;20.75;33.40
75497;BME280;64074;47.540;19.072;2023-05-10T16:06:08;100499.22;;;20.61;34.44
75497;BME280;64074;47.540;19.072;2023-05-10T16:09:45;100508.28;;;20.61;34.56
75497;BME280;64074;47.540;19.072;2023-05-10T16:13:07;100507.28;;;20.53;33.30
75497;BME280;64074;47.540;19.072;2023-05-10T16:16:30;100505.34;;;20.22;33.19
75497;BME280;64074;47.540;19.072;2023-05-10T16:19:49;100508.38;;;20.49;32.87
75497;BME280;64074;47.540;19.072;2023-05-10T16:23:23;100509.41;;;19.81;33.64
75497;BME280;64074;47.540;19.072;2023-05-10T16:26:38;100496.19;;;20.18;33.44
75497;BME280;64074;47.540;19.072;2023-05-10T16:30:12;100507.50;;;20.45;33.07
75497;BME280;64074;47.540;19.072;2023-05-10T16:33:23;100509.97;;;20.34;33.60
75497;BME280;64074;47.540;19.072;2023-05-10T16:36:47;100518.28;;;20.06;33.93
75497;BME280;64074;47.540;19.072;2023-05-10T16:40:09;100518.75;;;20.24;34.19
75497;BME280;64074;47.540;19.072;2023-05-10T16:43:35;100516.19;;;19.84;34.83
75497;BME280;64074;47.540;19.072;2023-05-10T16:46:57;100518.66;;;19.89;35.12
75497;BME280;64074;47.540;19.072;2023-05-10T16:50:14;100509.22;;;19.46;35.94
75497;BME280;64074;47.540;19.072;2023-05-10T16:53:35;100515.69;;;19.38;36.52
75497;BME280;64074;47.540;19.072;2023-05-10T16:56:56;100524.47;;;19.44;36.67
75497;BME280;64074;47.540;19.072;2023-05-10T17:00:17;100529.22;;;20.03;35.98
75497;BME280;64074;47.540;19.072;2023-05-10T17:03:38;100538.50;;;19.82;36.51
75497;BME280;64074;47.540;19.072;2023-05-10T17:07:05;100531.31;;;19.78;36.48
75497;BME280;64074;47.540;19.072;2023-05-10T17:10:13;100538.22;;;19.44;37.75
75497;BME280;64074;47.540;19.072;2023-05-10T17:13:24;100532.47;;;19.49;37.63
75497;BME280;64074;47.540;19.072;2023-05-10T17:16:40;100537.25;;;19.52;37.70
75497;BME280;64074;47.540;19.072;2023-05-10T17:19:55;100538.06;;;19.52;37.65
75497;BME280;64074;47.540;19.072;2023-05-10T17:23:06;100545.06;;;19.62;37.53
75497;BME280;64074;47.540;19.072;2023-05-10T17:26:31;100548.25;;;19.52;37.63
75497;BME280;64074;47.540;19.072;2023-05-10T17:29:43;100551.63;;;19.73;37.73
75497;BME280;64074;47.540;19.072;2023-05-10T17:32:53;100547.63;;;19.43;38.00
75497;BME280;64074;47.540;19.072;2023-05-10T17:36:01;100549.75;;;19.49;38.15
75497;BME280;64074;47.540;19.072;2023-05-10T17:39:13;100552.06;;;19.47;38.16
75497;BME280;64074;47.540;19.072;2023-05-10T17:42:34;100545.06;;;19.22;38.00
75497;BME280;64074;47.540;19.072;2023-05-10T17:45:40;100558.41;;;18.95;38.61
75497;BME280;64074;47.540;19.072;2023-05-10T17:48:47;100551.41;;;18.98;38.74
75497;BME280;64074;47.540;19.072;2023-05-10T17:51:58;100556.69;;;18.79;38.86
75497;BME280;64074;47.540;19.072;2023-05-10T17:55:20;100561.84;;;18.80;38.78
75497;BME280;64074;47.540;19.072;2023-05-10T17:58:59;100566.31;;;18.85;39.00
75497;BME280;64074;47.540;19.072;2023-05-10T18:02:22;100565.19;;;18.86;38.91
75497;BME280;64074;47.540;19.072;2023-05-10T18:05:35;100571.66;;;18.57;38.87